sensor_id;sensor_type;location;lat;lon;timestamp;temperature;humidity
61412;DHT22;47278;49.732;7.690;2023-10-08T00:01:08;13.10;99.90
61412;DHT22;47278;49.732;7.690;2023-10-08T00:03:37;13.10;99.90
61412;DHT22;47278;49.732;7.690;2023-10-08T00:06:03;13.20;99.90
61412;DHT22;47278;49.732;7.690;2023-10-08T00:08:35;13.00;99.90
61412;DHT22;47278;49.732;7.690;2023-10-08T00:11:00;13.10;99.90
61412;DHT22;47278;49.732;7.690;2023-10-08T00:13:32;13.10;99.90
61412;DHT22;47278;49.732;7.690;2023-10-08T00:16:07;13.10;99.90
61412;DHT22;47278;49.732;7.690;2023-10-08T00:18:37;13.20;99.90
61412;DHT22;47278;49.732;7.690;2023-10-08T00:21:03;13.10;99.90
61412;DHT22;47278;49.732;7.690;2023-10-08T00:23:35;13.10;99.90
61412;DHT22;47278;49.732;7.690;2023-10-08T00:26:00;13.20;99.90
61412;DHT22;47278;49.732;7.690;2023-10-08T00:28:31;13.30;99.90
61412;DHT22;47278;49.732;7.690;2023-10-08T00:30:57;13.30;99.90
61412;DHT22;47278;49.732;7.690;2023-10-08T00:33:23;13.20;99.90
61412;DHT22;47278;49.732;7.690;2023-10-08T00:35:49;13.30;99.90
61412;DHT22;47278;49.732;7.690;2023-10-08T00:38:15;13.30;99.90
61412;DHT22;47278;49.732;7.690;2023-10-08T00:40:42;13.40;99.90
61412;DHT22;47278;49.732;7.690;2023-10-08T00:43:32;13.40;99.90
61412;DHT22;47278;49.732;7.690;2023-10-08T00:46:03;13.40;99.90
61412;DHT22;47278;49.732;7.690;2023-10-08T00:48:29;13.40;99.90
61412;DHT22;47278;49.732;7.690;2023-10-08T00:51:04;13.30;99.90
61412;DHT22;47278;49.732;7.690;2023-10-08T00:53:58;13.30;99.90
61412;DHT22;47278;49.732;7.690;2023-10-08T00:56:30;15.50;99.90
61412;DHT22;47278;49.732;7.690;2023-10-08T00:59:15;13.20;99.90
61412;DHT22;47278;49.732;7.690;2023-10-08T01:01:42;13.60;99.90
61412;DHT22;47278;49.732;7.690;2023-10-08T01:04:14;13.20;99.90
61412;DHT22;47278;49.732;7.690;2023-10-08T01:06:40;13.20;99.90
61412;DHT22;47278;49.732;7.690;2023-10-08T01:09:06;13.10;99.90
61412;DHT22;47278;49.732;7.690;2023-10-08T01:11:43;13.00;99.90
61412;DHT22;47278;49.732;7.690;2023-10-08T01:14:15;10.10;99.90
61412;DHT22;47278;49.732;7.690;2023-10-08T01:16:42;12.80;99.90
61412;DHT22;47278;49.732;7.690;2023-10-08T01:19:12;12.90;99.90
61412;DHT22;47278;49.732;7.690;2023-10-08T01:21:42;13.00;99.90
61412;DHT22;47278;49.732;7.690;2023-10-08T01:24:09;13.00;99.90
61412;DHT22;47278;49.732;7.690;2023-10-08T01:26:39;12.60;99.90
61412;DHT22;47278;49.732;7.690;2023-10-08T01:29:09;12.40;99.90
61412;DHT22;47278;49.732;7.690;2023-10-08T01:31:35;12.50;99.90
61412;DHT22;47278;49.732;7.690;2023-10-08T01:34:02;12.60;99.90
61412;DHT22;47278;49.732;7.690;2023-10-08T01:36:30;12.60;99.90
61412;DHT22;47278;49.732;7.690;2023-10-08T01:38:56;12.60;99.90
61412;DHT22;47278;49.732;7.690;2023-10-08T01:41:22;12.80;99.90
61412;DHT22;47278;49.732;7.690;2023-10-08T01:43:55;12.80;99.90
61412;DHT22;47278;49.732;7.690;2023-10-08T01:46:21;12.60;99.90
61412;DHT22;47278;49.732;7.690;2023-10-08T01:48:47;14.00;99.90
61412;DHT22;47278;49.732;7.690;2023-10-08T01:51:19;12.30;99.90
61412;DHT22;47278;49.732;7.690;2023-10-08T01:53:53;12.30;99.90
61412;DHT22;47278;49.732;7.690;2023-10-08T01:56:20;12.30;99.90
61412;DHT22;47278;49.732;7.690;2023-10-08T01:58:45;12.10;99.90
61412;DHT22;47278;49.732;7.690;2023-10-08T02:01:11;12.30;99.90
61412;DHT22;47278;49.732;7.690;2023-10-08T02:03:38;12.20;99.90
61412;DHT22;47278;49.732;7.690;2023-10-08T02:06:04;12.40;99.90
61412;DHT22;47278;49.732;7.690;2023-10-08T02:08:31;12.40;99.90
61412;DHT22;47278;49.732;7.690;2023-10-08T02:10:57;14.90;99.90
61412;DHT22;47278;49.732;7.690;2023-10-08T02:13:23;12.50;99.90
61412;DHT22;47278;49.732;7.690;2023-10-08T02:15:49;12.60;99.90
61412;DHT22;47278;49.732;7.690;2023-10-08T02:18:18;12.50;99.90
61412;DHT22;47278;49.732;7.690;2023-10-08T02:20:44;12.30;99.90
61412;DHT22;47278;49.732;7.690;2023-10-08T02:23:09;12.40;99.90
61412;DHT22;47278;49.732;7.690;2023-10-08T02:25:38;12.60;99.90
61412;DHT22;47278;49.732;7.690;2023-10-08T02:28:05;12.70;99.90
61412;DHT22;47278;49.732;7.690;2023-10-08T02:30:34;12.70;99.90
61412;DHT22;47278;49.732;7.690;2023-10-08T02:32:59;12.60;99.90
61412;DHT22;47278;49.732;7.690;2023-10-08T02:35:25;12.40;99.90
61412;DHT22;47278;49.732;7.690;2023-10-08T02:37:52;12.20;99.90
61412;DHT22;47278;49.732;7.690;2023-10-08T02:40:20;12.30;99.90
61412;DHT22;47278;49.732;7.690;2023-10-08T02:42:52;12.40;99.90
61412;DHT22;47278;49.732;7.690;2023-10-08T02:45:29;12.50;99.90
61412;DHT22;47278;49.732;7.690;2023-10-08T02:47:55;12.60;99.90
61412;DHT22;47278;49.732;7.690;2023-10-08T02:50:21;12.50;99.90
61412;DHT22;47278;49.732;7.690;2023-10-08T02:52:48;12.50;99.90
61412;DHT22;47278;49.732;7.690;2023-10-08T02:55:16;12.30;99.90
61412;DHT22;47278;49.732;7.690;2023-10-08T02:58:02;12.10;99.90
61412;DHT22;47278;49.732;7.690;2023-10-08T03:00:28;11.90;99.90
61412;DHT22;47278;49.732;7.690;2023-10-08T03:03:00;11.80;99.90
61412;DHT22;47278;49.732;7.690;2023-10-08T03:05:27;11.90;99.90
61412;DHT22;47278;49.732;7.690;2023-10-08T03:08:01;11.80;99.90
61412;DHT22;47278;49.732;7.690;2023-10-08T03:10:27;11.90;99.90
61412;DHT22;47278;49.732;7.690;2023-10-08T03:12:58;11.80;99.90
61412;DHT22;47278;49.732;7.690;2023-10-08T03:15:29;13.60;99.90
61412;DHT22;47278;49.732;7.690;2023-10-08T03:17:59;11.80;99.90
61412;DHT22;47278;49.732;7.690;2023-10-08T03:20:34;12.10;99.90
61412;DHT22;47278;49.732;7.690;2023-10-08T03:23:15;12.30;99.90
61412;DHT22;47278;49.732;7.690;2023-10-08T03:26:00;12.10;99.90
61412;DHT22;47278;49.732;7.690;2023-10-08T03:28:30;11.90;99.90
61412;DHT22;47278;49.732;7.690;2023-10-08T03:31:00;11.80;99.90
61412;DHT22;47278;49.732;7.690;2023-10-08T03:33:39;11.80;99.90
61412;DHT22;47278;49.732;7.690;2023-10-08T03:36:05;11.70;99.90
61412;DHT22;47278;49.732;7.690;2023-10-08T03:38:46;11.80;99.90
61412;DHT22;47278;49.732;7.690;2023-10-08T03:41:24;11.80;99.90
61412;DHT22;47278;49.732;7.690;2023-10-08T03:43:53;11.80;99.90
61412;DHT22;47278;49.732;7.690;2023-10-08T03:46:21;11.70;99.90
61412;DHT22;47278;49.732;7.690;2023-10-08T03:48:49;11.80;99.90
61412;DHT22;47278;49.732;7.690;2023-10-08T03:51:19;11.90;99.90
61412;DHT22;47278;49.732;7.690;2023-10-08T03:53:47;11.90;99.90
61412;DHT22;47278;49.732;7.690;2023-10-08T03:56:32;12.00;99.90
61412;DHT22;47278;49.732;7.690;2023-10-08T03:59:04;12.00;99.90
61412;DHT22;47278;49.732;7.690;2023-10-08T04:01:44;11.90;99.90
61412;DHT22;47278;49.732;7.690;2023-10-08T04:04:09;15.40;99.90
61412;DHT22;47278;49.732;7.690;2023-10-08T04:06:39;12.10;99.90
61412;DHT22;47278;49.732;7.690;2023-10-08T04:09:13;11.70;99.90
61412;DHT22;47278;49.732;7.690;2023-10-08T04:11:44;11.80;99.90
61412;DHT22;47278;49.732;7.690;2023-10-08T04:14:22;11.80;99.90
61412;DHT22;47278;49.732;7.690;2023-10-08T04:16:48;11.80;99.90
61412;DHT22;47278;49.732;7.690;2023-10-08T04:19:17;11.70;99.90
61412;DHT22;47278;49.732;7.690;2023-10-08T04:21:44;11.70;99.90
61412;DHT22;47278;49.732;7.690;2023-10-08T04:24:10;14.70;99.90
61412;DHT22;47278;49.732;7.690;2023-10-08T04:26:36;11.50;99.90
61412;DHT22;47278;49.732;7.690;2023-10-08T04:29:04;11.60;99.90
61412;DHT22;47278;49.732;7.690;2023-10-08T04:31:34;11.60;99.90
61412;DHT22;47278;49.732;7.690;2023-10-08T04:34:07;11.50;99.90
61412;DHT22;47278;49.732;7.690;2023-10-08T04:36:44;11.40;99.90
61412;DHT22;47278;49.732;7.690;2023-10-08T04:39:19;11.40;99.90
61412;DHT22;47278;49.732;7.690;2023-10-08T04:42:00;11.50;99.90
61412;DHT22;47278;49.732;7.690;2023-10-08T04:44:38;11.50;99.90
61412;DHT22;47278;49.732;7.690;2023-10-08T04:47:05;11.50;99.90
61412;DHT22;47278;49.732;7.690;2023-10-08T04:49:32;11.40;99.90
61412;DHT22;47278;49.732;7.690;2023-10-08T04:52:01;11.20;99.90
61412;DHT22;47278;49.732;7.690;2023-10-08T04:54:33;11.30;99.90
61412;DHT22;47278;49.732;7.690;2023-10-08T04:57:05;11.30;99.90
61412;DHT22;47278;49.732;7.690;2023-10-08T04:59:40;11.30;99.90
61412;DHT22;47278;49.732;7.690;2023-10-08T05:02:07;11.30;99.90
61412;DHT22;47278;49.732;7.690;2023-10-08T05:04:46;11.50;99.90
61412;DHT22;47278;49.732;7.690;2023-10-08T05:07:18;11.30;99.90
61412;DHT22;47278;49.732;7.690;2023-10-08T05:09:47;11.30;99.90
61412;DHT22;47278;49.732;7.690;2023-10-08T05:12:28;13.70;99.90
61412;DHT22;47278;49.732;7.690;2023-10-08T05:15:00;11.30;99.90
61412;DHT22;47278;49.732;7.690;2023-10-08T05:17:55;11.30;99.90
61412;DHT22;47278;49.732;7.690;2023-10-08T05:20:34;11.50;99.90
61412;DHT22;47278;49.732;7.690;2023-10-08T05:23:24;11.50;99.90
61412;DHT22;47278;49.732;7.690;2023-10-08T05:25:50;11.50;99.90
61412;DHT22;47278;49.732;7.690;2023-10-08T05:28:32;11.60;99.90
61412;DHT22;47278;49.732;7.690;2023-10-08T05:31:10;11.60;99.90
61412;DHT22;47278;49.732;7.690;2023-10-08T05:33:42;9.40;99.90
61412;DHT22;47278;49.732;7.690;2023-10-08T05:36:26;11.50;99.90
61412;DHT22;47278;49.732;7.690;2023-10-08T05:39:16;11.50;99.90
61412;DHT22;47278;49.732;7.690;2023-10-08T05:41:58;12.60;99.90
61412;DHT22;47278;49.732;7.690;2023-10-08T05:44:41;11.60;99.90
61412;DHT22;47278;49.732;7.690;2023-10-08T05:47:14;11.60;99.90
61412;DHT22;47278;49.732;7.690;2023-10-08T05:50:01;11.40;99.90
61412;DHT22;47278;49.732;7.690;2023-10-08T05:52:42;11.50;99.90
61412;DHT22;47278;49.732;7.690;2023-10-08T05:55:28;11.50;99.90
61412;DHT22;47278;49.732;7.690;2023-10-08T05:57:59;11.50;99.90
61412;DHT22;47278;49.732;7.690;2023-10-08T06:00:43;8.20;99.90
61412;DHT22;47278;49.732;7.690;2023-10-08T06:03:29;11.50;99.90
61412;DHT22;47278;49.732;7.690;2023-10-08T06:06:01;11.50;99.90
61412;DHT22;47278;49.732;7.690;2023-10-08T06:08:47;11.50;99.90
61412;DHT22;47278;49.732;7.690;2023-10-08T06:11:46;11.80;99.90
61412;DHT22;47278;49.732;7.690;2023-10-08T06:14:32;11.90;99.90
61412;DHT22;47278;49.732;7.690;2023-10-08T06:17:16;12.10;99.90
61412;DHT22;47278;49.732;7.690;2023-10-08T06:20:20;12.40;99.90
61412;DHT22;47278;49.732;7.690;2023-10-08T06:22:51;12.80;99.90
61412;DHT22;47278;49.732;7.690;2023-10-08T06:25:18;12.10;99.90
61412;DHT22;47278;49.732;7.690;2023-10-08T06:27:49;12.00;99.90
61412;DHT22;47278;49.732;7.690;2023-10-08T06:30:19;12.10;99.90
61412;DHT22;47278;49.732;7.690;2023-10-08T06:32:44;12.10;99.90
61412;DHT22;47278;49.732;7.690;2023-10-08T06:35:10;12.20;99.90
61412;DHT22;47278;49.732;7.690;2023-10-08T06:37:45;12.10;99.90
61412;DHT22;47278;49.732;7.690;2023-10-08T06:40:13;12.00;99.90
61412;DHT22;47278;49.732;7.690;2023-10-08T06:42:59;12.00;99.90
61412;DHT22;47278;49.732;7.690;2023-10-08T06:45:29;12.00;99.90
61412;DHT22;47278;49.732;7.690;2023-10-08T06:47:58;12.10;99.90
61412;DHT22;47278;49.732;7.690;2023-10-08T06:50:23;12.20;99.90
61412;DHT22;47278;49.732;7.690;2023-10-08T06:52:49;12.30;99.90
61412;DHT22;47278;49.732;7.690;2023-10-08T06:55:15;12.40;99.90
61412;DHT22;47278;49.732;7.690;2023-10-08T06:57:43;12.50;99.90
61412;DHT22;47278;49.732;7.690;2023-10-08T07:00:08;12.50;99.90
61412;DHT22;47278;49.732;7.690;2023-10-08T07:02:38;12.60;99.90
61412;DHT22;47278;49.732;7.690;2023-10-08T07:05:05;12.80;99.90
61412;DHT22;47278;49.732;7.690;2023-10-08T07:07:34;12.80;99.90
61412;DHT22;47278;49.732;7.690;2023-10-08T07:10:05;12.90;99.90
61412;DHT22;47278;49.732;7.690;2023-10-08T07:12:30;13.00;99.90
61412;DHT22;47278;49.732;7.690;2023-10-08T07:15:00;13.10;99.90
61412;DHT22;47278;49.732;7.690;2023-10-08T07:17:27;14.00;99.90
61412;DHT22;47278;49.732;7.690;2023-10-08T07:20:02;13.20;99.90
61412;DHT22;47278;49.732;7.690;2023-10-08T07:22:35;13.30;99.90
61412;DHT22;47278;49.732;7.690;2023-10-08T07:25:03;13.30;99.90
61412;DHT22;47278;49.732;7.690;2023-10-08T07:27:33;13.50;99.90
61412;DHT22;47278;49.732;7.690;2023-10-08T07:30:03;13.40;99.90
61412;DHT22;47278;49.732;7.690;2023-10-08T07:32:35;13.40;99.90
61412;DHT22;47278;49.732;7.690;2023-10-08T07:35:04;13.40;99.90
61412;DHT22;47278;49.732;7.690;2023-10-08T07:37:50;13.40;99.90
61412;DHT22;47278;49.732;7.690;2023-10-08T07:40:16;13.50;99.90
61412;DHT22;47278;49.732;7.690;2023-10-08T07:42:42;13.70;99.90
61412;DHT22;47278;49.732;7.690;2023-10-08T07:45:09;13.80;99.90
61412;DHT22;47278;49.732;7.690;2023-10-08T07:47:35;13.90;99.90
61412;DHT22;47278;49.732;7.690;2023-10-08T07:50:00;14.00;99.90
61412;DHT22;47278;49.732;7.690;2023-10-08T07:52:36;14.10;99.90
61412;DHT22;47278;49.732;7.690;2023-10-08T07:55:02;14.10;99.90
61412;DHT22;47278;49.732;7.690;2023-10-08T07:57:30;14.10;99.90
61412;DHT22;47278;49.732;7.690;2023-10-08T07:59:56;14.20;99.90
61412;DHT22;47278;49.732;7.690;2023-10-08T08:02:29;14.20;99.90
61412;DHT22;47278;49.732;7.690;2023-10-08T08:04:56;14.30;99.90
61412;DHT22;47278;49.732;7.690;2023-10-08T08:07:21;14.40;99.90
61412;DHT22;47278;49.732;7.690;2023-10-08T08:09:51;14.40;99.90
61412;DHT22;47278;49.732;7.690;2023-10-08T08:12:17;14.50;99.90
61412;DHT22;47278;49.732;7.690;2023-10-08T08:14:44;14.50;99.90
61412;DHT22;47278;49.732;7.690;2023-10-08T08:17:10;14.60;99.90
61412;DHT22;47278;49.732;7.690;2023-10-08T08:19:39;14.80;99.90
61412;DHT22;47278;49.732;7.690;2023-10-08T08:22:04;14.80;99.90
61412;DHT22;47278;49.732;7.690;2023-10-08T08:24:30;14.90;99.90
61412;DHT22;47278;49.732;7.690;2023-10-08T08:27:01;15.10;99.90
61412;DHT22;47278;49.732;7.690;2023-10-08T08:29:33;15.10;99.90
61412;DHT22;47278;49.732;7.690;2023-10-08T08:32:12;15.20;99.90
61412;DHT22;47278;49.732;7.690;2023-10-08T08:34:43;15.40;99.90
61412;DHT22;47278;49.732;7.690;2023-10-08T08:37:10;15.40;99.90
61412;DHT22;47278;49.732;7.690;2023-10-08T08:39:37;15.60;99.90
61412;DHT22;47278;49.732;7.690;2023-10-08T08:42:03;15.70;99.90
61412;DHT22;47278;49.732;7.690;2023-10-08T08:44:30;15.90;99.90
61412;DHT22;47278;49.732;7.690;2023-10-08T08:47:00;16.10;99.90
61412;DHT22;47278;49.732;7.690;2023-10-08T08:49:31;16.20;99.90
61412;DHT22;47278;49.732;7.690;2023-10-08T08:51:58;16.50;99.90
61412;DHT22;47278;49.732;7.690;2023-10-08T08:54:26;16.40;99.90
61412;DHT22;47278;49.732;7.690;2023-10-08T08:56:56;16.50;99.90
61412;DHT22;47278;49.732;7.690;2023-10-08T08:59:21;16.60;99.90
61412;DHT22;47278;49.732;7.690;2023-10-08T09:01:47;16.70;99.90
61412;DHT22;47278;49.732;7.690;2023-10-08T09:04:13;16.80;99.90
61412;DHT22;47278;49.732;7.690;2023-10-08T09:06:42;16.90;99.90
61412;DHT22;47278;49.732;7.690;2023-10-08T09:09:07;17.00;99.90
61412;DHT22;47278;49.732;7.690;2023-10-08T09:11:50;17.10;99.90
61412;DHT22;47278;49.732;7.690;2023-10-08T09:14:21;17.10;99.90
61412;DHT22;47278;49.732;7.690;2023-10-08T09:16:47;17.10;99.90
61412;DHT22;47278;49.732;7.690;2023-10-08T09:19:13;17.20;99.90
61412;DHT22;47278;49.732;7.690;2023-10-08T09:21:50;17.20;99.90
61412;DHT22;47278;49.732;7.690;2023-10-08T09:24:24;17.40;99.90
61412;DHT22;47278;49.732;7.690;2023-10-08T09:26:54;17.40;99.90
61412;DHT22;47278;49.732;7.690;2023-10-08T09:29:23;17.50;99.90
61412;DHT22;47278;49.732;7.690;2023-10-08T09:31:53;17.50;99.90
61412;DHT22;47278;49.732;7.690;2023-10-08T09:34:21;17.60;99.90
61412;DHT22;47278;49.732;7.690;2023-10-08T09:36:48;17.60;99.90
61412;DHT22;47278;49.732;7.690;2023-10-08T09:39:14;17.60;99.90
61412;DHT22;47278;49.732;7.690;2023-10-08T09:42:06;17.70;99.90
61412;DHT22;47278;49.732;7.690;2023-10-08T09:44:32;17.70;99.90
61412;DHT22;47278;49.732;7.690;2023-10-08T09:49:31;18.20;99.90
61412;DHT22;47278;49.732;7.690;2023-10-08T09:51:59;18.60;99.90
61412;DHT22;47278;49.732;7.690;2023-10-08T09:54:28;18.90;99.90
61412;DHT22;47278;49.732;7.690;2023-10-08T09:56:58;19.20;99.90
61412;DHT22;47278;49.732;7.690;2023-10-08T09:59:25;19.20;99.90
61412;DHT22;47278;49.732;7.690;2023-10-08T10:01:51;19.00;99.90
61412;DHT22;47278;49.732;7.690;2023-10-08T10:04:24;19.40;99.90
61412;DHT22;47278;49.732;7.690;2023-10-08T10:06:50;19.60;99.90
61412;DHT22;47278;49.732;7.690;2023-10-08T10:09:22;19.80;99.90
61412;DHT22;47278;49.732;7.690;2023-10-08T10:11:48;20.10;99.90
61412;DHT22;47278;49.732;7.690;2023-10-08T10:14:15;20.00;99.90
61412;DHT22;47278;49.732;7.690;2023-10-08T10:16:43;19.90;99.90
61412;DHT22;47278;49.732;7.690;2023-10-08T10:19:17;20.30;99.90
61412;DHT22;47278;49.732;7.690;2023-10-08T10:21:46;20.50;99.90
61412;DHT22;47278;49.732;7.690;2023-10-08T10:24:22;20.60;99.90
61412;DHT22;47278;49.732;7.690;2023-10-08T10:27:08;20.90;99.90
61412;DHT22;47278;49.732;7.690;2023-10-08T10:29:34;21.00;99.90
61412;DHT22;47278;49.732;7.690;2023-10-08T10:31:59;20.60;99.90
61412;DHT22;47278;49.732;7.690;2023-10-08T10:34:26;20.70;99.90
61412;DHT22;47278;49.732;7.690;2023-10-08T10:36:53;20.90;99.90
61412;DHT22;47278;49.732;7.690;2023-10-08T10:39:24;21.20;99.90
61412;DHT22;47278;49.732;7.690;2023-10-08T10:41:54;21.20;99.90
61412;DHT22;47278;49.732;7.690;2023-10-08T10:44:27;21.30;99.90
61412;DHT22;47278;49.732;7.690;2023-10-08T10:46:55;21.70;99.90
61412;DHT22;47278;49.732;7.690;2023-10-08T10:49:39;22.00;99.90
61412;DHT22;47278;49.732;7.690;2023-10-08T10:52:17;21.80;99.90
61412;DHT22;47278;49.732;7.690;2023-10-08T10:55:01;21.70;99.90
61412;DHT22;47278;49.732;7.690;2023-10-08T10:57:43;22.20;99.90
61412;DHT22;47278;49.732;7.690;2023-10-08T11:00:09;22.50;99.90
61412;DHT22;47278;49.732;7.690;2023-10-08T11:03:04;22.40;99.90
61412;DHT22;47278;49.732;7.690;2023-10-08T11:05:43;22.60;99.90
61412;DHT22;47278;49.732;7.690;2023-10-08T11:08:13;22.70;99.90
61412;DHT22;47278;49.732;7.690;2023-10-08T11:10:41;23.20;99.90
61412;DHT22;47278;49.732;7.690;2023-10-08T11:13:12;23.30;99.90
61412;DHT22;47278;49.732;7.690;2023-10-08T11:15:44;23.30;99.90
61412;DHT22;47278;49.732;7.690;2023-10-08T11:18:15;23.20;99.90
61412;DHT22;47278;49.732;7.690;2023-10-08T11:20:42;23.10;99.90
61412;DHT22;47278;49.732;7.690;2023-10-08T11:23:14;21.80;99.90
61412;DHT22;47278;49.732;7.690;2023-10-08T11:28:19;24.10;99.90
61412;DHT22;47278;49.732;7.690;2023-10-08T11:30:44;24.20;99.90
61412;DHT22;47278;49.732;7.690;2023-10-08T11:33:12;24.20;99.90
61412;DHT22;47278;49.732;7.690;2023-10-08T11:36:02;24.20;99.90
61412;DHT22;47278;49.732;7.690;2023-10-08T11:38:37;24.20;99.90
61412;DHT22;47278;49.732;7.690;2023-10-08T11:41:10;24.20;99.90
61412;DHT22;47278;49.732;7.690;2023-10-08T11:43:38;24.60;99.90
61412;DHT22;47278;49.732;7.690;2023-10-08T11:46:05;24.10;99.90
61412;DHT22;47278;49.732;7.690;2023-10-08T11:48:30;24.40;99.90
61412;DHT22;47278;49.732;7.690;2023-10-08T11:51:03;24.80;99.90
61412;DHT22;47278;49.732;7.690;2023-10-08T11:53:30;24.80;99.90
61412;DHT22;47278;49.732;7.690;2023-10-08T11:55:56;24.30;99.90
61412;DHT22;47278;49.732;7.690;2023-10-08T11:58:22;24.30;99.90
61412;DHT22;47278;49.732;7.690;2023-10-08T12:01:02;24.20;99.90
61412;DHT22;47278;49.732;7.690;2023-10-08T12:03:28;24.30;99.90
61412;DHT22;47278;49.732;7.690;2023-10-08T12:05:54;24.50;99.90
61412;DHT22;47278;49.732;7.690;2023-10-08T12:08:24;24.80;99.90
61412;DHT22;47278;49.732;7.690;2023-10-08T12:10:55;24.90;99.90
61412;DHT22;47278;49.732;7.690;2023-10-08T12:13:21;25.20;99.90
61412;DHT22;47278;49.732;7.690;2023-10-08T12:15:54;25.00;99.90
61412;DHT22;47278;49.732;7.690;2023-10-08T12:18:34;25.00;99.90
61412;DHT22;47278;49.732;7.690;2023-10-08T12:21:09;25.00;99.90
61412;DHT22;47278;49.732;7.690;2023-10-08T12:23:40;24.90;99.90
61412;DHT22;47278;49.732;7.690;2023-10-08T12:26:08;25.10;99.90
61412;DHT22;47278;49.732;7.690;2023-10-08T12:28:34;25.00;99.90
61412;DHT22;47278;49.732;7.690;2023-10-08T12:31:02;25.00;99.90
61412;DHT22;47278;49.732;7.690;2023-10-08T12:33:29;25.50;99.90
61412;DHT22;47278;49.732;7.690;2023-10-08T12:35:55;25.60;99.90
61412;DHT22;47278;49.732;7.690;2023-10-08T12:38:24;26.10;99.90
61412;DHT22;47278;49.732;7.690;2023-10-08T12:40:53;26.20;99.90
61412;DHT22;47278;49.732;7.690;2023-10-08T12:43:19;26.00;99.90
61412;DHT22;47278;49.732;7.690;2023-10-08T12:45:48;25.20;99.90
61412;DHT22;47278;49.732;7.690;2023-10-08T12:48:20;25.60;99.90
61412;DHT22;47278;49.732;7.690;2023-10-08T12:50:47;25.70;99.90
61412;DHT22;47278;49.732;7.690;2023-10-08T12:53:21;25.20;99.90
61412;DHT22;47278;49.732;7.690;2023-10-08T12:55:52;24.90;99.90
61412;DHT22;47278;49.732;7.690;2023-10-08T12:58:22;24.90;99.90
61412;DHT22;47278;49.732;7.690;2023-10-08T13:00:53;24.60;99.90
61412;DHT22;47278;49.732;7.690;2023-10-08T13:03:23;24.50;99.90
61412;DHT22;47278;49.732;7.690;2023-10-08T13:05:52;24.70;99.90
61412;DHT22;47278;49.732;7.690;2023-10-08T13:08:18;24.70;99.90
61412;DHT22;47278;49.732;7.690;2023-10-08T13:10:47;24.90;99.90
61412;DHT22;47278;49.732;7.690;2023-10-08T13:13:13;24.80;99.90
61412;DHT22;47278;49.732;7.690;2023-10-08T13:15:39;25.00;99.90
61412;DHT22;47278;49.732;7.690;2023-10-08T13:18:07;24.80;99.90
61412;DHT22;47278;49.732;7.690;2023-10-08T13:20:33;24.90;99.90
61412;DHT22;47278;49.732;7.690;2023-10-08T13:22:59;24.90;99.90
61412;DHT22;47278;49.732;7.690;2023-10-08T13:25:25;24.90;99.90
61412;DHT22;47278;49.732;7.690;2023-10-08T13:27:51;25.00;99.90
61412;DHT22;47278;49.732;7.690;2023-10-08T13:30:17;24.80;99.90
61412;DHT22;47278;49.732;7.690;2023-10-08T13:32:42;24.80;99.90
61412;DHT22;47278;49.732;7.690;2023-10-08T13:35:08;24.80;99.90
61412;DHT22;47278;49.732;7.690;2023-10-08T13:37:34;24.90;99.90
61412;DHT22;47278;49.732;7.690;2023-10-08T13:40:00;25.00;99.90
61412;DHT22;47278;49.732;7.690;2023-10-08T13:42:26;25.10;99.90
61412;DHT22;47278;49.732;7.690;2023-10-08T13:44:55;25.10;99.90
61412;DHT22;47278;49.732;7.690;2023-10-08T13:47:23;25.50;99.90
61412;DHT22;47278;49.732;7.690;2023-10-08T13:49:53;25.60;99.90
61412;DHT22;47278;49.732;7.690;2023-10-08T13:52:20;25.40;99.90
61412;DHT22;47278;49.732;7.690;2023-10-08T13:54:46;27.20;99.90
61412;DHT22;47278;49.732;7.690;2023-10-08T13:57:16;25.60;99.90
61412;DHT22;47278;49.732;7.690;2023-10-08T13:59:44;25.70;99.90
61412;DHT22;47278;49.732;7.690;2023-10-08T14:02:09;25.60;99.90
61412;DHT22;47278;49.732;7.690;2023-10-08T14:04:41;25.10;99.90
61412;DHT22;47278;49.732;7.690;2023-10-08T14:07:09;24.80;99.90
61412;DHT22;47278;49.732;7.690;2023-10-08T14:09:37;25.00;99.90
61412;DHT22;47278;49.732;7.690;2023-10-08T14:12:03;25.10;99.90
61412;DHT22;47278;49.732;7.690;2023-10-08T14:14:29;25.30;99.90
61412;DHT22;47278;49.732;7.690;2023-10-08T14:17:00;25.30;99.90
61412;DHT22;47278;49.732;7.690;2023-10-08T14:19:29;25.40;99.90
61412;DHT22;47278;49.732;7.690;2023-10-08T14:22:01;25.20;99.90
61412;DHT22;47278;49.732;7.690;2023-10-08T14:24:30;26.00;99.90
61412;DHT22;47278;49.732;7.690;2023-10-08T14:26:58;27.10;99.90
61412;DHT22;47278;49.732;7.690;2023-10-08T14:29:31;26.30;99.90
61412;DHT22;47278;49.732;7.690;2023-10-08T14:31:59;26.20;99.90
61412;DHT22;47278;49.732;7.690;2023-10-08T14:34:25;27.70;99.90
61412;DHT22;47278;49.732;7.690;2023-10-08T14:37:20;27.20;99.90
61412;DHT22;47278;49.732;7.690;2023-10-08T14:40:05;26.40;99.90
61412;DHT22;47278;49.732;7.690;2023-10-08T14:42:49;28.60;99.90
61412;DHT22;47278;49.732;7.690;2023-10-08T14:45:23;30.10;99.90
61412;DHT22;47278;49.732;7.690;2023-10-08T14:47:52;30.60;99.90
61412;DHT22;47278;49.732;7.690;2023-10-08T14:50:18;31.10;99.90
61412;DHT22;47278;49.732;7.690;2023-10-08T14:52:44;30.20;99.90
61412;DHT22;47278;49.732;7.690;2023-10-08T14:55:10;29.20;99.90
61412;DHT22;47278;49.732;7.690;2023-10-08T14:57:39;28.90;99.90
61412;DHT22;47278;49.732;7.690;2023-10-08T15:00:05;29.20;99.90
61412;DHT22;47278;49.732;7.690;2023-10-08T15:02:31;26.70;99.90
61412;DHT22;47278;49.732;7.690;2023-10-08T15:04:58;29.20;99.90
61412;DHT22;47278;49.732;7.690;2023-10-08T15:07:26;29.40;99.90
61412;DHT22;47278;49.732;7.690;2023-10-08T15:09:53;29.90;99.90
61412;DHT22;47278;49.732;7.690;2023-10-08T15:12:26;29.40;99.90
61412;DHT22;47278;49.732;7.690;2023-10-08T15:14:52;28.90;99.90
61412;DHT22;47278;49.732;7.690;2023-10-08T15:17:17;28.40;99.90
61412;DHT22;47278;49.732;7.690;2023-10-08T15:19:43;26.50;99.90
61412;DHT22;47278;49.732;7.690;2023-10-08T15:22:09;25.20;99.90
61412;DHT22;47278;49.732;7.690;2023-10-08T15:24:34;24.70;99.90
61412;DHT22;47278;49.732;7.690;2023-10-08T15:27:02;24.70;99.90
61412;DHT22;47278;49.732;7.690;2023-10-08T15:29:29;24.10;99.90
61412;DHT22;47278;49.732;7.690;2023-10-08T15:31:55;24.10;99.90
61412;DHT22;47278;49.732;7.690;2023-10-08T15:34:22;23.90;99.90
61412;DHT22;47278;49.732;7.690;2023-10-08T15:36:48;23.80;99.90
61412;DHT22;47278;49.732;7.690;2023-10-08T15:39:14;23.70;99.90
61412;DHT22;47278;49.732;7.690;2023-10-08T15:41:48;23.80;99.90
61412;DHT22;47278;49.732;7.690;2023-10-08T15:44:14;23.80;99.90
61412;DHT22;47278;49.732;7.690;2023-10-08T15:46:39;23.70;99.90
61412;DHT22;47278;49.732;7.690;2023-10-08T15:49:05;23.50;99.90
61412;DHT22;47278;49.732;7.690;2023-10-08T15:51:31;23.50;99.90
61412;DHT22;47278;49.732;7.690;2023-10-08T15:53:59;23.20;99.90
61412;DHT22;47278;49.732;7.690;2023-10-08T15:56:26;23.50;99.90